sensor_id;sensor_type;location;lat;lon;timestamp;pressure;altitude;pressure_sealevel;temperature;humidity
71642;BME280;60657;50.122;14.468;2023-07-24T00:00:32;97579.09570836752;;;24.415197985809115;38.907301441977566
71642;BME280;60657;50.122;14.468;2023-07-24T00:03:34;97572.27960012281;;;24.460593575951776;39.086594949263755
71642;BME280;60657;50.122;14.468;2023-07-24T00:06:37;97574.52641043685;;;24.476615548943315;38.98741130693522
71642;BME280;60657;50.122;14.468;2023-07-24T00:09:38;97562.91968207702;;;24.44991226062409;38.6231021591516
71642;BME280;60657;50.122;14.468;2023-07-24T00:12:40;97566.79546750686;;;24.44991226062409;38.897764553292134
71642;BME280;60657;50.122;14.468;2023-07-24T00:15:42;97560.47511819475;;;24.41252765697719;38.93781948577096
71642;BME280;60657;50.122;14.468;2023-07-24T00:18:45;97567.19220771467;;;24.415197985809115;38.766155489433125
71642;BME280;60657;50.122;14.468;2023-07-24T00:21:47;97563.31548058099;;;24.34576943617914;38.89394979781796
71642;BME280;60657;50.122;14.468;2023-07-24T00:24:49;97552.82060647375;;;24.289692530708777;39.046540016784924
71642;BME280;60657;50.122;14.468;2023-07-24T00:27:51;97548.32460572456;;;24.185549706263828;39.1094834821088
71642;BME280;60657;50.122;14.468;2023-07-24T00:30:53;97549.82412247211;;;24.06271457999543;39.374608987563896
71642;BME280;60657;50.122;14.468;2023-07-24T00:33:55;97550.21333615713;;;24.036011291676203;39.345998321507594
71642;BME280;60657;50.122;14.468;2023-07-24T00:36:57;97554.57956858129;;;24.033340962844278;39.468070496681165
71642;BME280;60657;50.122;14.468;2023-07-24T00:39:59;97539.32705503496;;;23.99862668802929;39.441367208361946
71642;BME280;60657;50.122;14.468;2023-07-24T00:43:01;97537.69717933857;;;23.97993438620584;39.5214770733196
71642;BME280;60657;50.122;14.468;2023-07-24T00:46:03;97537.79436830412;;;23.95590142671854;39.54436560616465
71642;BME280;60657;50.122;14.468;2023-07-24T00:49:05;97534.2429016844;;;24.044022278171965;39.47379262989242
71642;BME280;60657;50.122;14.468;2023-07-24T00:52:08;97532.90475489089;;;23.969253070878153;39.53482871747921
71642;BME280;60657;50.122;14.468;2023-07-24T00:55:12;97535.44661328792;;;23.99595635919738;39.653086137178605
71642;BME280;60657;50.122;14.468;2023-07-24T00:58:15;97542.54728904481;;;23.889143205920504;39.571068894483865
71642;BME280;60657;50.122;14.468;2023-07-24T01:01:18;97539.76863167253;;;23.84374761577783;39.639734493019
71642;BME280;60657;50.122;14.468;2023-07-24T01:04:20;97542.50175830351;;;23.78233005264363;39.74464026855878
71642;BME280;60657;50.122;14.468;2023-07-24T01:07:24;97551.94682637019;;;23.750286106660567;40.0078583962768
71642;BME280;60657;50.122;14.468;2023-07-24T01:10:26;97547.15102482517;;;23.69687953002213;40.21576256961929
71642;BME280;60657;50.122;14.468;2023-07-24T01:13:29;97551.2665596567;;;23.622110322728318;40.50759136339361
71642;BME280;60657;50.122;14.468;2023-07-24T01:16:39;97554.90549828303;;;23.558022430762193;40.71740291447318
71642;BME280;60657;50.122;14.468;2023-07-24T01:19:46;97554.18432318144;;;23.550011444266417;40.80895704585336
71642;BME280;60657;50.122;14.468;2023-07-24T01:22:55;97566.44472854247;;;23.448538948653393;40.95773250934615
71642;BME280;60657;50.122;14.468;2023-07-24T01:26:22;97564.37125278618;;;23.39246204318303;41.37354085603113
71642;BME280;60657;50.122;14.468;2023-07-24T01:29:26;97564.11249103578;;;23.315022507057293;41.58144502937362
71642;BME280;60657;50.122;14.468;2023-07-24T01:32:28;97557.68017089367;;;23.266956588082707;41.791256580453194
71642;BME280;60657;50.122;14.468;2023-07-24T01:35:30;97566.11316287667;;;23.28297856107423;41.995345998321504
71642;BME280;60657;50.122;14.468;2023-07-24T01:38:34;97561.21931424462;;;23.200198367284656;42.19752803845274
71642;BME280;60657;50.122;14.468;2023-07-24T01:41:43;97555.60197440261;;;23.096055542839707;42.36346990157931
71642;BME280;60657;50.122;14.468;2023-07-24T01:44:50;97553.15513106709;;;23.17883573662928;42.20897230487526
71642;BME280;60657;50.122;14.468;2023-07-24T01:47:53;97538.92253482652;;;23.144121461814294;42.231860837720305
71642;BME280;60657;50.122;14.468;2023-07-24T01:50:55;97534.47607435322;;;23.200198367284656;42.306248569466696
71642;BME280;60657;50.122;14.468;2023-07-24T01:54:01;97527.67514909281;;;23.216220340276195;42.270008392462046
71642;BME280;60657;50.122;14.468;2023-07-24T01:57:03;97521.68946448191;;;23.22156099794003;42.397802700846874
71642;BME280;60657;50.122;14.468;2023-07-24T02:00:06;97528.68831534224;;;23.039978637369344;42.55420767528801
71642;BME280;60657;50.122;14.468;2023-07-24T02:03:09;97525.60924826509;;;22.989242389562833;42.58091096360723
71642;BME280;60657;50.122;14.468;2023-07-24T02:06:11;97500.9532048524;;;23.002594033722445;42.78690775921263
71642;BME280;60657;50.122;14.468;2023-07-24T02:09:19;97496.67416694302;;;23.15213244831007;42.519874876020445
71642;BME280;60657;50.122;14.468;2023-07-24T02:12:21;97496.30133474553;;;23.200198367284656;42.51796749828336
71642;BME280;60657;50.122;14.468;2023-07-24T02:15:24;97493.9492485982;;;23.173495078965445;42.714427405203324
71642;BME280;60657;50.122;14.468;2023-07-24T02:18:26;97499.84179780191;;;23.162813763637757;42.69344625009537
71642;BME280;60657;50.122;14.468;2023-07-24T02:21:28;97506.27007159083;;;23.224231326771957;42.594262607766844
71642;BME280;60657;50.122;14.468;2023-07-24T02:24:30;97505.45487531796;;;23.24559395742733;42.603799496452275
71642;BME280;60657;50.122;14.468;2023-07-24T02:27:32;97514.16593429759;;;23.17883573662928;42.7029831387808
71642;BME280;60657;50.122;14.468;2023-07-24T02:30:37;97533.02978397207;;;23.138780804150457;42.89181353475242
71642;BME280;60657;50.122;14.468;2023-07-24T02:33:40;97546.27279721171;;;23.053330281528957;43.21797512779431
71642;BME280;60657;50.122;14.468;2023-07-24T02:36:42;97541.6525968561;;;23.021286335545895;43.6757457846952
71642;BME280;60657;50.122;14.468;2023-07-24T02:39:44;97552.620254064;;;22.986572060730907;43.79209582665751
71642;BME280;60657;50.122;14.468;2023-07-24T02:42:46;97552.07654504453;;;22.898451209277482;44.02670328831922
71642;BME280;60657;50.122;14.468;2023-07-24T02:45:48;97554.96703345972;;;22.67147325856412;44.583657587548636
71642;BME280;60657;50.122;14.468;2023-07-24T02:48:50;97548.5997043538;;;22.476539253833835;45.16731517509728
71642;BME280;60657;50.122;14.468;2023-07-24T02:51:53;97541.51980015142;;;22.38841840238041;45.44007019150072
71642;BME280;60657;50.122;14.468;2023-07-24T02:54:57;97539.62393802174;;;22.452506294346534;45.08911268787671
71642;BME280;60657;50.122;14.468;2023-07-24T02:57:59;97545.07084061074;;;22.54329747463187;45.04524299992371
71642;BME280;60657;50.122;14.468;2023-07-24T03:01:03;97554.3117630805;;;22.575341420614933;44.88502327000839
71642;BME280;60657;50.122;14.468;2023-07-24T03:04:05;97558.83244147676;;;22.519264515144584;45.134889753566796
71642;BME280;60657;50.122;14.468;2023-07-24T03:07:07;97559.44540725212;;;22.42580300602731;45.358052948805984
71642;BME280;60657;50.122;14.468;2023-07-24T03:10:09;97568.30315046839;;;22.34035248340581;45.59456778820478
71642;BME280;60657;50.122;14.468;2023-07-24T03:13:12;97565.85433025363;;;22.335011825741972;45.83108262760357
71642;BME280;60657;50.122;14.468;2023-07-24T03:16:14;97565.50719653734;;;22.404440375371934;45.74525062943465
71642;BME280;60657;50.122;14.468;2023-07-24T03:19:16;97556.52890240126;;;22.324330510414285;46.10193026626993
71642;BME280;60657;50.122;14.468;2023-07-24T03:22:18;97555.41587447011;;;22.225528343633172;47.52674143587396
71642;BME280;60657;50.122;14.468;2023-07-24T03:25:20;97539.99383452546;;;22.11337453269246;49.74311436636911
71642;BME280;60657;50.122;14.468;2023-07-24T03:28:22;97540.11807865802;;;21.91844052796216;49.80605783169299
71642;BME280;60657;50.122;14.468;2023-07-24T03:31:24;97546.7626473869;;;21.755550469214924;50.147478446631574
71642;BME280;60657;50.122;14.468;2023-07-24T03:34:26;97538.68232348208;;;21.616693369954987;50.36682688639658
71642;BME280;60657;50.122;14.468;2023-07-24T03:37:28;97557.4810388287;;;21.67544060425726;50.883726253147174
71642;BME280;60657;50.122;14.468;2023-07-24T03:40:30;97562.06206779151;;;21.592660410467687;53.24124513618677
71642;BME280;60657;50.122;14.468;2023-07-24T03:43:34;97546.54999112787;;;21.355001144426637;55.108567940795
71642;BME280;60657;50.122;14.468;2023-07-24T03:46:36;97558.94456557122;;;21.090638590066376;56.3750667582208
71642;BME280;60657;50.122;14.468;2023-07-24T03:49:38;97542.42240180873;;;20.852979324025327;57.410772869459066
71642;BME280;60657;50.122;14.468;2023-07-24T03:52:41;97538.49490703974;;;20.82360570687419;58.27290760662241
71642;BME280;60657;50.122;14.468;2023-07-24T03:55:43;97523.31724198772;;;20.834287022201877;58.677271686884865
71642;BME280;60657;50.122;14.468;2023-07-24T03:58:45;97518.73100276511;;;20.770199130235753;59.54131380178531
71642;BME280;60657;50.122;14.468;2023-07-24T04:01:47;97512.430970706;;;20.684748607614253;59.3658350499733
71642;BME280;60657;50.122;14.468;2023-07-24T04:04:49;97503.713203245;;;20.735484855420765;59.43259327077135
71642;BME280;60657;50.122;14.468;2023-07-24T04:07:53;97515.3062302731;;;20.77553978789959;59.61379415579461
71642;BME280;60657;50.122;14.468;2023-07-24T04:10:56;97512.5402779119;;;20.77553978789959;59.800717174029145
71642;BME280;60657;50.122;14.468;2023-07-24T04:13:58;97511.8024377224;;;20.77553978789959;60.10017547875181
71642;BME280;60657;50.122;14.468;2023-07-24T04:17:00;97492.22514909628;;;20.748836499580378;60.45685511558709
71642;BME280;60657;50.122;14.468;2023-07-24T04:20:03;97497.1002584418;;;20.722133211261152;60.93179217212176
71642;BME280;60657;50.122;14.468;2023-07-24T04:23:07;97494.33444730741;;;20.772869459067678;60.91462577248798
71642;BME280;60657;50.122;14.468;2023-07-24T04:26:09;97479.97595278025;;;20.788891432059202;61.004272526131075
71642;BME280;60657;50.122;14.468;2023-07-24T04:29:11;97472.30873005973;;;20.796902418554964;60.908903639276716
71642;BME280;60657;50.122;14.468;2023-07-24T04:32:13;97457.62873970419;;;20.89036392767224;60.819256885633635
71642;BME280;60657;50.122;14.468;2023-07-24T04:35:15;97445.47398507869;;;20.922407873655303;60.538872358281836
71642;BME280;60657;50.122;14.468;2023-07-24T04:38:17;97452.65756024924;;;20.965133134966052;60.7792019531548
71642;BME280;60657;50.122;14.468;2023-07-24T04:41:26;97427.19328752333;;;21.04257267109179;60.807812619211106
71642;BME280;60657;50.122;14.468;2023-07-24T04:44:28;97434.7836822492;;;21.077286945906764;60.9565880827039
71642;BME280;60657;50.122;14.468;2023-07-24T04:47:30;97476.89890957974;;;21.015869382772564;61.29228656443122
71642;BME280;60657;50.122;14.468;2023-07-24T04:50:32;97464.41033352219;;;21.01853971160449;61.402914473182264
71642;BME280;60657;50.122;14.468;2023-07-24T04:53:34;97460.65691783444;;;21.07995727473869;61.58220798046845
71642;BME280;60657;50.122;14.468;2023-07-24T04:56:36;97463.92190652074;;;21.047913328755627;61.66994735637445
71642;BME280;60657;50.122;14.468;2023-07-24T04:59:39;97456.81865012;;;21.106660563057915;61.423895628290225
71642;BME280;60657;50.122;14.468;2023-07-24T05:02:41;97458.20384697063;;;21.16540779736019;61.41245136186771
71642;BME280;60657;50.122;14.468;2023-07-24T05:05:43;97464.08182578217;;;21.22148470283055;61.4582284275578
71642;BME280;60657;50.122;14.468;2023-07-24T05:08:45;97458.77202174792;;;21.272220950637063;61.45441367208362
71642;BME280;60657;50.122;14.468;2023-07-24T05:11:47;97451.09573185269;;;21.28290226596475;61.46013580529488
71642;BME280;60657;50.122;14.468;2023-07-24T05:14:50;97455.09278458418;;;21.2882429236286;61.143511100938426
71642;BME280;60657;50.122;14.468;2023-07-24T05:17:52;97452.47817804293;;;21.3256275272755;60.91462577248798
71642;BME280;60657;50.122;14.468;2023-07-24T05:20:54;97448.88024967712;;;21.38437476157779;61.1625848783093
71642;BME280;60657;50.122;14.468;2023-07-24T05:23:56;97457.0399488582;;;21.451132982375825;60.70099946593423
71642;BME280;60657;50.122;14.468;2023-07-24T05:26:59;97457.82959885003;;;21.584649423971925;60.30045014114596
71642;BME280;60657;50.122;14.468;2023-07-24T05:30:01;97446.45874699227;;;21.67277027542535;60.03913939116502
71642;BME280;60657;50.122;14.468;2023-07-24T05:33:07;97439.2477670389;;;21.744869153887237;59.47074082551309
71642;BME280;60657;50.122;14.468;2023-07-24T05:36:09;97434.56580749585;;;21.878385595483323;59.74921797512779
71642;BME280;60657;50.122;14.468;2023-07-24T05:39:11;97438.7632695684;;;21.958495460440986;59.079728389410235
71642;BME280;60657;50.122;14.468;2023-07-24T05:42:13;97439.51604619411;;;22.08400091554131;58.677271686884865
71642;BME280;60657;50.122;14.468;2023-07-24T05:45:16;97439.16224053911;;;22.188143739986273;58.44457160296025
71642;BME280;60657;50.122;14.468;2023-07-24T05:48:19;97443.5206307402;;;22.313649195086597;57.830395971618216
71642;BME280;60657;50.122;14.468;2023-07-24T05:51:21;97445.60879138311;;;22.401770046540022;57.607232776379035
71642;BME280;60657;50.122;14.468;2023-07-24T05:54:24;97452.76680660318;;;22.46852826733806;57.30586709391928
71642;BME280;60657;50.122;14.468;2023-07-24T05:57:26;97455.84791514029;;;22.51125352864881;57.101777676050965
71642;BME280;60657;50.122;14.468;2023-07-24T06:00:28;97448.33029934215;;;22.479209582665746;57.18188754100862
71642;BME280;60657;50.122;14.468;2023-07-24T06:03:30;97451.50094393702;;;22.50057221332112;56.94728007934691
71642;BME280;60657;50.122;14.468;2023-07-24T06:06:32;97447.33449522866;;;22.49256122682536;56.989242389562826
71642;BME280;60657;50.122;14.468;2023-07-24T06:09:35;97442.26251621923;;;22.47386892500191;56.73174639505608
71642;BME280;60657;50.122;14.468;2023-07-24T06:12:48;97437.00913781513;;;22.54329747463187;56.82711528191043
71642;BME280;60657;50.122;14.468;2023-07-24T06:15:51;97441.99062127553;;;22.564660105287246;56.59441519798581
71642;BME280;60657;50.122;14.468;2023-07-24T06:18:54;97439.90550585215;;;22.60204470893416;56.71457999542229
71642;BME280;60657;50.122;14.468;2023-07-24T06:21:56;97436.00494239625;;;22.63408865491722;56.43228809033341
71642;BME280;60657;50.122;14.468;2023-07-24T06:24:59;97430.4708023363;;;22.732890821698334;56.48187991149767
71642;BME280;60657;50.122;14.468;2023-07-24T06:28:01;97436.89757153975;;;22.82368200198367;55.942092011902034
71642;BME280;60657;50.122;14.468;2023-07-24T06:31:04;97441.34176721478;;;22.772945754177158;55.99740596627756
71642;BME280;60657;50.122;14.468;2023-07-24T06:34:06;97440.43454507801;;;22.78629739833677;55.495765621423665
71642;BME280;60657;50.122;14.468;2023-07-24T06:37:09;97448.76888073921;;;22.839703974975208;55.625467307545584
71642;BME280;60657;50.122;14.468;2023-07-24T06:40:11;97463.08537872105;;;22.818341344319833;55.91157396810864
71642;BME280;60657;50.122;14.468;2023-07-24T06:43:14;97466.06947884061;;;22.938506141756307;55.814297703517205
71642;BME280;60657;50.122;14.468;2023-07-24T06:46:18;97470.31160903204;;;23.064011596856645;56.010757610437174
71642;BME280;60657;50.122;14.468;2023-07-24T06:49:21;97453.23636782642;;;23.26428625925078;55.80094605935759
71642;BME280;60657;50.122;14.468;2023-07-24T06:52:23;97461.0599040856;;;23.485923552300292;54.58594644083314
71642;BME280;60657;50.122;14.468;2023-07-24T06:55:26;97446.34872787412;;;23.509956511787593;54.414282444495306
71642;BME280;60657;50.122;14.468;2023-07-24T06:58:28;97432.40566240554;;;23.424505989166093;54.99794003204394
71642;BME280;60657;50.122;14.468;2023-07-24T07:01:30;97429.28787257307;;;23.595407034409092;54.4448004882887
71642;BME280;60657;50.122;14.468;2023-07-24T07:04:32;97415.6772070562;;;23.584725719081405;54.80910963607233
71642;BME280;60657;50.122;14.468;2023-07-24T07:07:35;97400.86169996765;;;23.71557183184558;54.54207675288014
71642;BME280;60657;50.122;14.468;2023-07-24T07:10:37;97399.36118350948;;;23.718242160677505;54.99794003204394
71642;BME280;60657;50.122;14.468;2023-07-24T07:13:39;97395.31544402415;;;23.803692683299005;55.011291676203555
71642;BME280;60657;50.122;14.468;2023-07-24T07:16:42;97394.30321664644;;;23.883802548256654;54.357061112382695
71642;BME280;60657;50.122;14.468;2023-07-24T07:19:44;97400.34037240029;;;23.60608834973678;54.55924315251392
71642;BME280;60657;50.122;14.468;2023-07-24T07:22:48;97390.08282591315;;;23.643472953383693;54.68513008316167
71642;BME280;60657;50.122;14.468;2023-07-24T07:25:51;97398.02772092345;;;23.662165255207142;54.15678644998856
71642;BME280;60657;50.122;14.468;2023-07-24T07:28:53;97398.57130552869;;;23.854428931105517;53.55786984054322
71642;BME280;60657;50.122;14.468;2023-07-24T07:31:56;97408.45633981278;;;23.969253070878153;52.667124437323565
71642;BME280;60657;50.122;14.468;2023-07-24T07:34:58;97408.36766898997;;;24.153505760280765;52.041504539559014
71642;BME280;60657;50.122;14.468;2023-07-24T07:38:01;97402.87588294792;;;24.457923247119865;51.360570687418935
71642;BME280;60657;50.122;14.468;2023-07-24T07:41:05;97404.09165052917;;;24.543373769741365;51.11642633707179
71642;BME280;60657;50.122;14.468;2023-07-24T07:44:08;97406.75801170201;;;25.0854505226215;49.99298084992752
71642;BME280;60657;50.122;14.468;2023-07-24T07:47:10;97410.20839340764;;;25.39787899595636;49.085069047074086
71642;BME280;60657;50.122;14.468;2023-07-24T07:50:12;97407.5004218293;;;25.534065766384373;48.62729839017319
71642;BME280;60657;50.122;14.468;2023-07-24T07:53:15;97408.90882762992;;;25.542076752880135;48.289692530708784
71642;BME280;60657;50.122;14.468;2023-07-24T07:56:17;97417.25609410643;;;25.55008773937591;47.96734569314107
71642;BME280;60657;50.122;14.468;2023-07-24T07:59:20;97425.3861697354;;;25.598153658350498;48.308766308079655
71642;BME280;60657;50.122;14.468;2023-07-24T08:02:22;97423.54223074566;;;25.582131685358974;48.095140001525905
71642;BME280;60657;50.122;14.468;2023-07-24T08:05:25;97417.31026139943;;;25.368505378805224;48.57579919127184
71642;BME280;60657;50.122;14.468;2023-07-24T08:08:27;97417.78683393319;;;25.162890058747237;48.875257495994504
71642;BME280;60657;50.122;14.468;2023-07-24T08:11:29;97417.74164771281;;;25.293736171511412;49.083161669336995
71642;BME280;60657;50.122;14.468;2023-07-24T08:14:32;97412.59543000237;;;25.485999847409786;48.99542229343099
71642;BME280;60657;50.122;14.468;2023-07-24T08:17:34;97397.18211642548;;;25.683604180971997;48.44419012741283
71642;BME280;60657;50.122;14.468;2023-07-24T08:20:37;97389.74494613723;;;26.04676890211337;49.41313801785306
71642;BME280;60657;50.122;14.468;2023-07-24T08:23:40;97370.90733901769;;;26.56481269550622;47.1376363775082
71642;BME280;60657;50.122;14.468;2023-07-24T08:26:43;97369.49417593898;;;26.93064774547952;46.42046234836347
71642;BME280;60657;50.122;14.468;2023-07-24T08:29:45;97352.27015110129;;;27.192339971007854;45.35423819333181
71642;BME280;60657;50.122;14.468;2023-07-24T08:32:47;97330.9065203586;;;27.301823453116654;46.759975585564966
71642;BME280;60657;50.122;14.468;2023-07-24T08:35:58;97330.62026107301;;;27.689021133745328;44.890745403219654
71642;BME280;60657;50.122;14.468;2023-07-24T08:39:02;97327.88700896152;;;27.779812314030664;44.26321812771801
71642;BME280;60657;50.122;14.468;2023-07-24T08:42:09;97311.1160729029;;;27.84390020599679;44.12207217517357
71642;BME280;60657;50.122;14.468;2023-07-24T08:45:22;97310.48940359936;;;27.65430685893034;44.08392462043183
71642;BME280;60657;50.122;14.468;2023-07-24T08:48:34;97294.03057924332;;;27.822537575341414;43.69291218432898
71642;BME280;60657;50.122;14.468;2023-07-24T08:51:39;97292.01658820164;;;28.049515526054776;43.88746471351186
71642;BME280;60657;50.122;14.468;2023-07-24T08:54:42;97295.306460192;;;28.169680323491264;42.838406958113985
71642;BME280;60657;50.122;14.468;2023-07-24T08:57:47;97299.53040888926;;;28.279163805600064;42.84985122453651
71642;BME280;60657;50.122;14.468;2023-07-24T09:00:52;97287.23717658396;;;28.524834058136875;42.809796292057676
71642;BME280;60657;50.122;14.468;2023-07-24T09:03:54;97296.11268071049;;;28.46074616617075;42.798352025635154
71642;BME280;60657;50.122;14.468;2023-07-24T09:06:58;97287.10766003771;;;28.524834058136875;42.697261005569544
71642;BME280;60657;50.122;14.468;2023-07-24T09:10:00;97280.60101836057;;;28.949416342412448;41.19043259327077
71642;BME280;60657;50.122;14.468;2023-07-24T09:13:04;97289.41694877669;;;29.34729533836881;40.2729839017319
71642;BME280;60657;50.122;14.468;2023-07-24T09:16:06;97287.46114113246;;;30.10566872663462;39.51003280689708
71642;BME280;60657;50.122;14.468;2023-07-24T09:19:16;97266.38742322114;;;30.538261997405968;39.124742504005496
71642;BME280;60657;50.122;14.468;2023-07-24T09:22:18;97272.14197599993;;;30.86938277256428;37.535896849011976
71642;BME280;60657;50.122;14.468;2023-07-24T09:25:29;97271.3337357217;;;30.890745403219654;37.610284580758375
71642;BME280;60657;50.122;14.468;2023-07-24T09:28:31;97276.85445620342;;;30.55161364156558;38.36942092011902
71642;BME280;60657;50.122;14.468;2023-07-24T09:31:35;97280.17171324644;;;30.30594338902877;38.2111085679408
71642;BME280;60657;50.122;14.468;2023-07-24T09:34:41;97284.56472857286;;;30.057602807660032;38.46288242923629
71642;BME280;60657;50.122;14.468;2023-07-24T09:37:45;97279.71229038408;;;30.188448920424207;38.85580224307622
71642;BME280;60657;50.122;14.468;2023-07-24T09:40:48;97275.74212725129;;;29.793240253299757;39.34218356603342
71642;BME280;60657;50.122;14.468;2023-07-24T09:43:57;97276.17158503605;;;29.681086442359046;39.672159914549475
71642;BME280;60657;50.122;14.468;2023-07-24T09:47:00;97271.45462613359;;;29.625009536888683;39.609216449225606
71642;BME280;60657;50.122;14.468;2023-07-24T09:50:08;97260.80088730337;;;29.62767986572061;39.90295262073701
71642;BME280;60657;50.122;14.468;2023-07-24T09:53:16;97262.96599488387;;;29.55024032959487;39.65117875944152
71642;BME280;60657;50.122;14.468;2023-07-24T09:56:22;97261.47282553755;;;29.62767986572061;39.561532005798426
71642;BME280;60657;50.122;14.468;2023-07-24T09:59:25;97267.13552950109;;;29.68375677119097;39.68741893644617
71642;BME280;60657;50.122;14.468;2023-07-24T10:02:31;97252.3126454199;;;29.48081177996491;39.90295262073701
71642;BME280;60657;50.122;14.468;2023-07-24T10:05:34;97252.176042352;;;29.51819638361181;39.653086137178605
71642;BME280;60657;50.122;14.468;2023-07-24T10:08:38;97247.99471382196;;;29.534218356603347;39.76752880140383
71642;BME280;60657;50.122;14.468;2023-07-24T10:11:41;97250.14785844559;;;29.62767986572061;39.68741893644617
71642;BME280;60657;50.122;14.468;2023-07-24T10:14:43;97250.95676516548;;;29.587624933241784;40.11657892729076
71642;BME280;60657;50.122;14.468;2023-07-24T10:17:48;97239.6189208825;;;29.587624933241784;40.00213626306554
71642;BME280;60657;50.122;14.468;2023-07-24T10:20:59;97250.03014094173;;;29.373998626688035;39.67788204776074
71642;BME280;60657;50.122;14.468;2023-07-24T10:24:03;97251.24911593982;;;29.197756923781185;39.80949111161974
71642;BME280;60657;50.122;14.468;2023-07-24T10:27:06;97250.84460898254;;;29.165712977798123;39.84763866636148
71642;BME280;60657;50.122;14.468;2023-07-24T10:30:09;97245.04478484024;;;29.259174486915384;39.90104524299992
71642;BME280;60657;50.122;14.468;2023-07-24T10:33:12;97248.41636368507;;;29.301899748226134;39.729381246662086
71642;BME280;60657;50.122;14.468;2023-07-24T10:36:20;97253.80914028718;;;29.406042572671097;39.849546044098574
71642;BME280;60657;50.122;14.468;2023-07-24T10:39:24;97255.02022271644;;;29.419394216830696;39.944914930952926
71642;BME280;60657;50.122;14.468;2023-07-24T10:42:27;97247.18579634542;;;29.547570000762946;40.50759136339361
71642;BME280;60657;50.122;14.468;2023-07-24T10:45:38;97240.13474623434;;;29.750514991989007;40.00213626306554
71642;BME280;60657;50.122;14.468;2023-07-24T10:48:42;97231.63337645473;;;29.73716334782941;39.376516365300986
71642;BME280;60657;50.122;14.468;2023-07-24T10:51:46;97226.22800788336;;;29.78255893797207;38.991226062409396
71642;BME280;60657;50.122;14.468;2023-07-24T10:54:50;97232.00236343381;;;29.89204242008087;39.2563515678645
71642;BME280;60657;50.122;14.468;2023-07-24T10:57:53;97225.22723781045;;;29.980163271534295;38.832913710231175
71642;BME280;60657;50.122;14.468;2023-07-24T11:00:55;97214.68656594395;;;29.98283360036622;38.674601358052946